createdAt,value
2018-06-15T00:00:07.189Z,99.90
2018-06-15T00:02:36.297Z,99.90
2018-06-15T00:05:04.921Z,99.90
2018-06-15T00:07:33.604Z,99.90
2018-06-15T00:10:02.526Z,99.90
2018-06-15T00:12:31.101Z,99.90
2018-06-15T00:14:59.753Z,99.90
2018-06-15T00:17:28.417Z,99.90
2018-06-15T00:19:56.908Z,99.90
2018-06-15T00:22:25.437Z,99.90
2018-06-15T00:24:54.229Z,99.90
2018-06-15T00:27:22.741Z,99.90
2018-06-15T00:29:51.349Z,99.90
2018-06-15T00:32:19.904Z,99.90
2018-06-15T00:34:48.534Z,99.90
2018-06-15T00:37:17.033Z,99.90
2018-06-15T00:39:45.664Z,99.90
2018-06-15T00:42:14.224Z,99.90
2018-06-15T00:44:43.200Z,99.90
2018-06-15T00:47:11.781Z,99.90
2018-06-15T00:49:40.332Z,99.90
2018-06-15T00:52:09.689Z,99.90
2018-06-15T00:54:38.493Z,99.90
2018-06-15T00:57:18.144Z,99.90
2018-06-15T00:59:46.744Z,99.90
2018-06-15T01:02:15.473Z,99.90
2018-06-15T01:04:44.046Z,99.90
2018-06-15T01:07:12.619Z,99.90
2018-06-15T01:09:41.212Z,99.90
2018-06-15T01:12:09.806Z,99.90
2018-06-15T01:14:38.516Z,99.90
2018-06-15T01:17:07.020Z,99.90
2018-06-15T01:19:35.519Z,99.90
2018-06-15T01:22:04.089Z,99.90
2018-06-15T01:24:32.573Z,99.90
2018-06-15T01:27:02.181Z,99.90
2018-06-15T01:29:30.681Z,99.90
2018-06-15T01:31:59.562Z,99.90
2018-06-15T01:34:29.992Z,99.90
2018-06-15T01:36:58.485Z,99.90
2018-06-15T01:39:26.992Z,99.90
2018-06-15T01:41:55.522Z,99.90
2018-06-15T01:44:24.090Z,99.90
2018-06-15T01:46:53.945Z,99.90
2018-06-15T01:49:22.460Z,99.90
2018-06-15T01:51:50.971Z,99.90
2018-06-15T01:54:19.452Z,99.90
2018-06-15T01:56:47.965Z,99.90
2018-06-15T01:59:16.436Z,99.90
2018-06-15T02:01:44.912Z,99.90
2018-06-15T02:04:13.420Z,99.90
2018-06-15T02:06:42.253Z,99.90
2018-06-15T02:09:11.781Z,99.90
2018-06-15T02:11:40.293Z,99.90
2018-06-15T02:14:09.229Z,99.90
2018-06-15T02:16:37.727Z,99.90
2018-06-15T02:19:06.262Z,99.90
2018-06-15T02:21:35.829Z,99.90
2018-06-15T02:24:05.373Z,99.90
2018-06-15T02:26:33.914Z,99.90
2018-06-15T02:29:02.429Z,99.90
2018-06-15T02:31:31.080Z,99.90
2018-06-15T02:33:59.651Z,99.90
2018-06-15T02:36:28.182Z,99.90
2018-06-15T02:38:56.678Z,99.90
2018-06-15T02:41:25.199Z,99.90
2018-06-15T02:43:53.712Z,99.90
2018-06-15T02:46:22.234Z,99.90
2018-06-15T02:51:18.922Z,99.90
2018-06-15T02:53:47.433Z,99.90
2018-06-15T02:56:15.976Z,99.90
2018-06-15T02:58:44.471Z,99.90
2018-06-15T03:01:13.285Z,99.90
2018-06-15T03:03:42.191Z,99.90
2018-06-15T03:06:10.741Z,99.90
2018-06-15T03:08:39.245Z,99.90
2018-06-15T03:11:08.444Z,99.90
2018-06-15T03:13:36.941Z,99.90
2018-06-15T03:16:05.462Z,99.90
2018-06-15T03:18:33.994Z,99.90
2018-06-15T03:21:02.925Z,99.90
2018-06-15T03:23:32.358Z,99.90
2018-06-15T03:26:00.921Z,99.90
2018-06-15T03:28:29.481Z,99.90
2018-06-15T03:30:58.016Z,99.90
2018-06-15T03:33:27.105Z,99.90
2018-06-15T03:35:55.895Z,99.90
2018-06-15T03:38:24.661Z,99.90
2018-06-15T03:40:53.478Z,99.90
2018-06-15T03:43:21.970Z,99.90
2018-06-15T03:45:50.509Z,99.90
2018-06-15T03:48:19.818Z,99.90
2018-06-15T03:50:48.321Z,99.90
2018-06-15T03:53:16.824Z,99.90
2018-06-15T03:55:45.345Z,99.90
2018-06-15T03:58:14.495Z,99.90
2018-06-15T04:00:42.985Z,99.90
2018-06-15T04:05:39.697Z,99.90
2018-06-15T04:08:08.206Z,99.90
2018-06-15T04:10:36.894Z,99.90
2018-06-15T04:13:05.884Z,99.90
2018-06-15T04:15:34.333Z,99.90
2018-06-15T04:20:38.300Z,99.90
2018-06-15T04:23:07.101Z,99.90
2018-06-15T04:25:35.982Z,99.90
2018-06-15T04:28:04.774Z,99.90
2018-06-15T04:30:33.818Z,99.90
2018-06-15T04:35:30.534Z,99.90
2018-06-15T04:37:59.066Z,99.90
2018-06-15T04:40:27.692Z,99.90
2018-06-15T04:42:56.182Z,99.90
2018-06-15T04:45:24.710Z,99.90
2018-06-15T04:47:54.261Z,99.90
2018-06-15T04:50:22.755Z,99.90
2018-06-15T04:52:51.804Z,99.90
2018-06-15T04:55:20.358Z,99.90
2018-06-15T04:57:48.977Z,99.90
2018-06-15T05:00:18.049Z,99.90
2018-06-15T05:02:46.567Z,99.90
2018-06-15T05:05:16.590Z,99.90
2018-06-15T05:07:45.129Z,99.90
2018-06-15T05:10:13.622Z,99.90
2018-06-15T05:12:42.113Z,99.90
2018-06-15T05:15:10.638Z,99.90
2018-06-15T05:17:39.185Z,99.90
2018-06-15T05:20:07.752Z,99.90
2018-06-15T05:22:36.363Z,99.90
2018-06-15T05:25:05.545Z,99.90
2018-06-15T05:27:34.041Z,99.90
2018-06-15T05:30:02.591Z,99.90
2018-06-15T05:32:31.804Z,99.90
2018-06-15T05:35:00.966Z,99.90
2018-06-15T05:37:29.722Z,99.90
2018-06-15T05:39:58.836Z,99.90
2018-06-15T05:42:27.317Z,99.90
2018-06-15T05:44:57.873Z,99.90
2018-06-15T05:47:26.389Z,99.90
2018-06-15T05:49:54.907Z,99.90
2018-06-15T05:52:24.362Z,99.90
2018-06-15T05:54:52.845Z,99.90
2018-06-15T05:57:21.394Z,99.90
2018-06-15T05:59:49.889Z,99.90
2018-06-15T06:02:18.391Z,99.90
2018-06-15T06:04:47.563Z,99.90
2018-06-15T06:07:16.049Z,99.90
2018-06-15T06:09:45.070Z,99.90
2018-06-15T06:12:13.594Z,99.90
2018-06-15T06:14:42.090Z,99.90
2018-06-15T06:17:11.509Z,99.90
2018-06-15T06:19:40.780Z,99.90
2018-06-15T06:22:11.398Z,99.90
2018-06-15T06:24:39.899Z,99.90
2018-06-15T06:27:08.513Z,99.90
2018-06-15T06:29:37.046Z,99.90
2018-06-15T06:32:05.919Z,99.90
2018-06-15T06:34:34.538Z,99.90
2018-06-15T06:37:03.079Z,99.90
2018-06-15T06:39:31.598Z,99.90
2018-06-15T06:42:00.137Z,99.90
2018-06-15T06:44:28.641Z,99.90
2018-06-15T06:46:57.766Z,99.90
2018-06-15T06:49:26.286Z,99.90
2018-06-15T06:51:54.835Z,99.90
2018-06-15T06:54:26.260Z,99.90
2018-06-15T06:56:54.758Z,99.90
2018-06-15T06:59:24.198Z,99.90
2018-06-15T07:01:53.734Z,99.90
2018-06-15T07:04:22.261Z,99.80
2018-06-15T07:06:50.778Z,99.20
2018-06-15T07:09:19.325Z,96.30
2018-06-15T07:11:47.822Z,95.00
2018-06-15T07:14:17.273Z,94.00
2018-06-15T07:16:45.815Z,93.00
2018-06-15T07:19:14.677Z,94.50
2018-06-15T07:21:43.555Z,92.60
2018-06-15T07:24:12.078Z,92.00
2018-06-15T07:26:41.667Z,91.00
2018-06-15T07:29:12.110Z,90.30
2018-06-15T07:31:41.271Z,91.20
2018-06-15T07:34:09.761Z,89.60
2018-06-15T07:36:38.278Z,90.50
2018-06-15T07:39:08.576Z,90.50
2018-06-15T07:41:37.072Z,92.20
2018-06-15T07:44:05.618Z,92.00
2018-06-15T07:46:34.136Z,91.70
2018-06-15T07:49:02.643Z,90.70
2018-06-15T07:51:31.166Z,90.10
2018-06-15T07:53:59.707Z,87.20
2018-06-15T07:56:28.208Z,86.70
2018-06-15T07:58:56.729Z,88.80
2018-06-15T08:01:25.267Z,86.10
2018-06-15T08:04:02.392Z,83.80
2018-06-15T08:06:31.557Z,86.50
2018-06-15T08:09:00.997Z,90.00
2018-06-15T08:11:29.998Z,91.00
2018-06-15T08:13:58.661Z,90.50
2018-06-15T08:18:56.566Z,92.40
2018-06-15T08:21:25.066Z,94.00
2018-06-15T08:23:53.946Z,95.30
2018-06-15T08:26:24.500Z,94.50
2018-06-15T08:28:53.017Z,95.40
2018-06-15T08:33:49.701Z,94.20
2018-06-15T08:36:18.333Z,92.30
2018-06-15T08:38:47.155Z,88.10
2018-06-15T08:41:15.681Z,91.10
2018-06-15T08:43:44.569Z,92.10
2018-06-15T08:46:13.075Z,91.20
2018-06-15T08:48:41.633Z,93.20
2018-06-15T08:51:10.190Z,93.40
2018-06-15T08:53:39.623Z,92.20
2018-06-15T08:56:08.114Z,92.40
2018-06-15T08:58:36.633Z,92.80
2018-06-15T09:01:05.577Z,92.90
2018-06-15T09:03:34.477Z,92.00
2018-06-15T09:06:03.002Z,92.80
2018-06-15T09:08:31.503Z,92.40
2018-06-15T09:11:00.022Z,91.80
2018-06-15T09:13:28.567Z,88.80
2018-06-15T09:15:57.177Z,89.20
2018-06-15T09:18:26.147Z,89.50
2018-06-15T09:20:54.663Z,89.60
2018-06-15T09:23:23.186Z,89.30
2018-06-15T09:25:53.054Z,90.00
2018-06-15T09:28:23.653Z,89.50
2018-06-15T09:30:52.682Z,88.70
2018-06-15T09:33:21.243Z,87.20
2018-06-15T09:35:50.405Z,87.40
2018-06-15T09:38:19.253Z,90.20
2018-06-15T09:40:47.767Z,89.60
2018-06-15T09:43:16.300Z,91.40
2018-06-15T09:45:45.288Z,89.50
2018-06-15T09:48:14.742Z,87.80
2018-06-15T09:50:43.667Z,85.70
2018-06-15T09:53:12.247Z,86.60
2018-06-15T09:55:40.737Z,84.30
2018-06-15T09:58:10.230Z,85.30
2018-06-15T10:00:44.121Z,84.20
2018-06-15T10:03:13.055Z,85.20
2018-06-15T10:05:41.706Z,85.10
2018-06-15T10:08:10.440Z,82.80
2018-06-15T10:10:39.286Z,86.40
2018-06-15T10:13:07.901Z,81.70
2018-06-15T10:15:36.960Z,84.20
2018-06-15T10:18:05.674Z,86.20
2018-06-15T10:20:34.189Z,83.10
2018-06-15T10:23:02.711Z,83.60
2018-06-15T10:25:31.366Z,79.60
2018-06-15T10:30:30.991Z,78.40
2018-06-15T10:33:00.008Z,78.30
2018-06-15T10:35:28.896Z,79.80
2018-06-15T10:37:57.577Z,79.40
2018-06-15T10:40:26.147Z,75.70
2018-06-15T10:42:54.701Z,73.20
2018-06-15T10:45:25.129Z,79.40
2018-06-15T10:50:21.835Z,75.20
2018-06-15T10:52:50.337Z,73.80
2018-06-15T10:55:18.850Z,73.30
2018-06-15T11:00:15.569Z,71.80
2018-06-15T11:02:44.098Z,75.00
2018-06-15T11:05:12.645Z,76.20
2018-06-15T11:07:41.150Z,78.20
2018-06-15T11:10:09.703Z,76.20
2018-06-15T11:12:38.758Z,76.30
2018-06-15T11:15:07.302Z,77.70
2018-06-15T11:17:36.721Z,73.80
2018-06-15T11:20:05.939Z,75.10
2018-06-15T11:22:34.444Z,75.40
2018-06-15T11:25:02.958Z,73.70
2018-06-15T11:27:31.479Z,74.30
2018-06-15T11:32:28.146Z,71.50
2018-06-15T11:34:57.577Z,73.00
2018-06-15T11:37:26.075Z,71.90
2018-06-15T11:39:55.465Z,70.00
2018-06-15T11:42:25.142Z,71.90
2018-06-15T11:44:53.937Z,68.90
2018-06-15T11:47:23.121Z,70.40
2018-06-15T11:49:51.666Z,68.50
2018-06-15T11:52:20.165Z,70.30
2018-06-15T11:54:49.605Z,69.10
2018-06-15T11:57:18.117Z,65.00
2018-06-15T11:59:46.613Z,65.90
2018-06-15T12:02:15.122Z,67.10
2018-06-15T12:04:43.677Z,67.10
2018-06-15T12:07:12.182Z,63.80
2018-06-15T12:09:40.943Z,71.50
2018-06-15T12:12:10.165Z,70.40
2018-06-15T12:17:06.835Z,73.60
2018-06-15T12:19:35.350Z,70.80
2018-06-15T12:22:03.857Z,73.60
2018-06-15T12:24:32.353Z,75.50
2018-06-15T12:27:01.886Z,72.30
2018-06-15T12:29:30.382Z,69.60
2018-06-15T12:31:58.985Z,69.90
2018-06-15T12:34:28.509Z,67.20
2018-06-15T12:36:57.929Z,67.90
2018-06-15T12:39:26.438Z,70.80
2018-06-15T12:41:54.967Z,68.50
2018-06-15T12:44:23.486Z,69.90
2018-06-15T12:46:51.986Z,69.00
2018-06-15T12:49:21.157Z,68.10
2018-06-15T12:51:49.653Z,68.60
2018-06-15T12:54:18.986Z,66.90
2018-06-15T12:56:47.597Z,69.00
2018-06-15T12:59:16.135Z,67.10
2018-06-15T13:01:45.611Z,67.50
2018-06-15T13:04:14.266Z,68.00
2018-06-15T13:06:42.787Z,68.00
2018-06-15T13:09:12.358Z,67.60
2018-06-15T13:11:41.144Z,71.30
2018-06-15T13:14:09.646Z,68.90
2018-06-15T13:16:38.140Z,72.30
2018-06-15T13:19:06.931Z,71.60
2018-06-15T13:21:35.747Z,69.90
2018-06-15T13:24:04.311Z,66.60
2018-06-15T13:26:32.833Z,66.20
2018-06-15T13:29:01.326Z,67.40
2018-06-15T13:31:29.826Z,69.10
2018-06-15T13:33:58.377Z,69.10
2018-06-15T13:36:26.906Z,67.60
2018-06-15T13:38:55.444Z,62.70
2018-06-15T13:41:24.038Z,64.20
2018-06-15T13:44:07.262Z,61.30
2018-06-15T13:46:36.158Z,62.30
2018-06-15T13:49:05.162Z,64.30
2018-06-15T13:51:34.078Z,64.50
2018-06-15T13:54:02.618Z,66.20
2018-06-15T13:56:31.147Z,63.80
2018-06-15T13:58:59.692Z,65.10
2018-06-15T14:01:28.390Z,63.50
2018-06-15T14:03:57.074Z,65.00
2018-06-15T14:06:25.593Z,67.50
2018-06-15T14:08:54.116Z,67.30
2018-06-15T14:11:23.505Z,68.00
2018-06-15T14:13:52.001Z,62.90
2018-06-15T14:16:20.929Z,67.20
2018-06-15T14:18:49.421Z,64.90
2018-06-15T14:21:18.913Z,65.00
2018-06-15T14:23:47.440Z,65.00
2018-06-15T14:26:16.829Z,66.10
2018-06-15T14:28:45.326Z,67.60
2018-06-15T14:31:13.863Z,68.30
2018-06-15T14:33:42.388Z,67.40
2018-06-15T14:36:11.321Z,66.20
2018-06-15T14:38:39.846Z,69.50
2018-06-15T14:41:08.406Z,67.30
2018-06-15T14:43:36.916Z,67.00
2018-06-15T14:46:05.450Z,67.00
2018-06-15T14:48:34.734Z,65.00
2018-06-15T14:51:03.560Z,65.90
2018-06-15T14:53:33.157Z,66.90
2018-06-15T14:56:02.775Z,62.90
2018-06-15T14:58:32.438Z,64.70
2018-06-15T15:01:01.742Z,69.10
2018-06-15T15:03:30.960Z,66.20
2018-06-15T15:06:00.157Z,64.80
2018-06-15T15:08:29.282Z,62.70
2018-06-15T15:10:58.300Z,65.70
2018-06-15T15:13:27.661Z,66.10
2018-06-15T15:15:56.885Z,64.60
2018-06-15T15:18:25.454Z,64.30
2018-06-15T15:20:54.630Z,60.00
2018-06-15T15:23:23.239Z,59.60
2018-06-15T15:25:51.775Z,62.70
2018-06-15T15:28:20.273Z,62.10
2018-06-15T15:30:49.809Z,65.70
2018-06-15T15:33:18.369Z,66.60
2018-06-15T15:35:46.877Z,66.50
2018-06-15T15:38:15.432Z,64.50
2018-06-15T15:40:44.206Z,61.20
2018-06-15T15:43:12.827Z,61.90
2018-06-15T15:45:41.384Z,64.20
2018-06-15T15:48:09.891Z,62.50
2018-06-15T15:50:38.526Z,66.60
2018-06-15T15:53:10.001Z,67.20
2018-06-15T15:55:38.519Z,64.60
2018-06-15T15:58:07.177Z,64.60
2018-06-15T16:03:03.956Z,68.20
2018-06-15T16:05:32.493Z,68.80
2018-06-15T16:08:01.553Z,66.80
2018-06-15T16:10:30.056Z,66.40
2018-06-15T16:12:58.594Z,66.40
2018-06-15T16:15:27.162Z,62.50
2018-06-15T16:20:24.150Z,63.40
2018-06-15T16:22:53.070Z,64.30
2018-06-15T16:25:21.620Z,66.80
2018-06-15T16:27:50.163Z,67.70
2018-06-15T16:30:18.719Z,66.00
2018-06-15T16:32:47.241Z,65.10
2018-06-15T16:35:15.781Z,63.90
2018-06-15T16:37:44.338Z,65.00
2018-06-15T16:40:14.187Z,65.10
2018-06-15T16:42:42.793Z,64.80
2018-06-15T16:45:12.370Z,65.20
2018-06-15T16:47:40.909Z,68.60
2018-06-15T16:50:09.474Z,68.80
2018-06-15T16:52:39.028Z,66.80
2018-06-15T16:55:07.606Z,67.50
2018-06-15T16:57:37.137Z,71.20
2018-06-15T17:00:06.974Z,71.70
2018-06-15T17:02:35.910Z,73.00
2018-06-15T17:05:04.471Z,72.20
2018-06-15T17:07:33.630Z,71.30
2018-06-15T17:10:02.152Z,71.50
2018-06-15T17:12:30.841Z,73.70
2018-06-15T17:15:00.327Z,74.50
2018-06-15T17:17:29.846Z,73.20
2018-06-15T17:19:59.081Z,73.80
2018-06-15T17:22:27.898Z,73.40
2018-06-15T17:24:56.454Z,73.90
2018-06-15T17:27:26.266Z,73.30
2018-06-15T17:29:56.057Z,75.80
2018-06-15T17:32:25.471Z,76.50
2018-06-15T17:34:54.944Z,77.50
2018-06-15T17:37:23.545Z,75.40
2018-06-15T17:39:52.491Z,77.00
2018-06-15T17:42:21.127Z,78.30
2018-06-15T17:44:50.153Z,75.70
2018-06-15T17:47:19.359Z,75.60
2018-06-15T17:49:48.085Z,76.00
2018-06-15T17:52:16.734Z,75.60
2018-06-15T17:54:45.296Z,76.60
2018-06-15T17:57:13.850Z,76.10
2018-06-15T17:59:42.458Z,76.10
2018-06-15T18:02:11.467Z,76.00
2018-06-15T18:04:40.904Z,77.40
2018-06-15T18:07:10.358Z,76.70
2018-06-15T18:09:39.122Z,77.30
2018-06-15T18:12:08.368Z,77.40
2018-06-15T18:14:39.007Z,77.20
2018-06-15T18:17:09.888Z,78.40
2018-06-15T18:19:39.507Z,78.20
2018-06-15T18:22:08.080Z,74.40
2018-06-15T18:24:37.089Z,72.90
2018-06-15T18:27:05.734Z,73.10
2018-06-15T18:29:34.374Z,71.00
2018-06-15T18:32:04.303Z,63.10
2018-06-15T18:34:33.453Z,61.00
2018-06-15T18:37:02.056Z,60.80
2018-06-15T18:39:30.690Z,56.90
2018-06-15T18:41:59.873Z,55.10
2018-06-15T18:44:28.482Z,56.50
2018-06-15T18:46:57.917Z,58.30
2018-06-15T18:49:26.747Z,61.70
2018-06-15T18:51:55.486Z,65.00
2018-06-15T18:54:25.031Z,67.10
2018-06-15T18:56:53.910Z,71.60
2018-06-15T18:59:24.504Z,74.00
2018-06-15T19:01:53.354Z,76.00
2018-06-15T19:04:22.229Z,79.40
2018-06-15T19:06:51.718Z,79.70
2018-06-15T19:09:21.700Z,82.50
2018-06-15T19:11:51.121Z,84.60
2018-06-15T19:14:19.821Z,87.70
2018-06-15T19:16:48.663Z,89.70
2018-06-15T19:19:17.285Z,91.10
2018-06-15T19:21:46.312Z,93.10
2018-06-15T19:24:15.449Z,94.80
2018-06-15T19:26:46.920Z,94.90
2018-06-15T19:29:15.584Z,96.40
2018-06-15T19:31:45.246Z,97.60
2018-06-15T19:34:14.836Z,97.00
2018-06-15T19:36:43.506Z,97.30
2018-06-15T19:39:13.687Z,98.40
2018-06-15T19:41:42.797Z,99.90
2018-06-15T19:44:11.766Z,99.90
2018-06-15T19:46:41.738Z,99.90
2018-06-15T19:49:11.607Z,99.90
2018-06-15T19:51:43.657Z,99.90
2018-06-15T19:54:12.341Z,99.90
2018-06-15T19:56:42.171Z,99.90
2018-06-15T19:59:11.609Z,99.90
2018-06-15T20:01:40.961Z,99.90
2018-06-15T20:04:10.083Z,99.90
2018-06-15T20:06:42.777Z,99.90
2018-06-15T20:09:12.546Z,99.90
2018-06-15T20:11:41.845Z,99.90
2018-06-15T20:14:16.698Z,99.90
2018-06-15T20:16:45.799Z,99.90
2018-06-15T20:19:15.106Z,99.90
2018-06-15T20:21:44.718Z,99.90
2018-06-15T20:24:15.833Z,99.90
2018-06-15T20:26:46.818Z,99.90
2018-06-15T20:29:16.614Z,99.90
2018-06-15T20:31:46.890Z,99.90
2018-06-15T20:34:16.021Z,99.90
2018-06-15T20:36:44.789Z,99.90
2018-06-15T20:39:13.554Z,99.90
2018-06-15T20:41:43.276Z,99.90
2018-06-15T20:44:12.877Z,99.90
2018-06-15T20:46:41.513Z,99.90
2018-06-15T20:49:10.586Z,99.90
2018-06-15T20:51:39.258Z,99.90
2018-06-15T20:54:07.914Z,99.90
2018-06-15T20:56:37.374Z,99.90
2018-06-15T20:59:06.501Z,99.90
2018-06-15T21:01:35.137Z,99.90
2018-06-15T21:04:04.258Z,99.90
2018-06-15T21:06:33.174Z,99.90
2018-06-15T21:09:02.801Z,99.90
2018-06-15T21:11:33.513Z,99.90
2018-06-15T21:14:02.133Z,99.90
2018-06-15T21:16:30.845Z,99.90
2018-06-15T21:19:00.016Z,99.90
2018-06-15T21:21:29.908Z,99.90
2018-06-15T21:23:59.032Z,99.90
2018-06-15T21:26:27.700Z,99.90
2018-06-15T21:31:46.729Z,99.90
2018-06-15T21:34:15.817Z,99.90
2018-06-15T21:36:45.125Z,99.90
2018-06-15T21:39:16.446Z,99.90
2018-06-15T21:41:48.382Z,99.90
2018-06-15T21:44:19.234Z,99.90
2018-06-15T21:46:48.571Z,99.90
2018-06-15T21:49:20.935Z,99.90
2018-06-15T21:51:51.824Z,99.90
2018-06-15T21:54:25.262Z,99.90
2018-06-15T21:56:55.515Z,99.90
2018-06-15T21:59:30.335Z,99.90
2018-06-15T22:02:02.369Z,99.90
2018-06-15T22:04:33.331Z,99.90
2018-06-15T22:07:03.617Z,99.90
2018-06-15T22:09:45.870Z,99.90
2018-06-15T22:12:16.578Z,99.90
2018-06-15T22:14:47.965Z,99.90
2018-06-15T22:17:17.913Z,99.90
2018-06-15T22:22:16.572Z,99.90
2018-06-15T22:24:45.957Z,99.90
2018-06-15T22:27:15.254Z,99.90
2018-06-15T22:29:43.984Z,99.90
2018-06-15T22:32:13.017Z,99.90
2018-06-15T22:34:42.597Z,99.90
2018-06-15T22:37:11.976Z,99.90
2018-06-15T22:39:42.198Z,99.90
2018-06-15T22:42:11.781Z,99.90
2018-06-15T22:44:41.446Z,99.90
2018-06-15T22:47:11.062Z,99.90
2018-06-15T22:49:39.895Z,99.90
2018-06-15T22:52:08.859Z,99.90
2018-06-15T22:54:38.681Z,99.90
2018-06-15T22:57:08.555Z,99.90
2018-06-15T22:59:37.340Z,99.90
2018-06-15T23:02:06.568Z,99.90
2018-06-15T23:04:35.873Z,99.90
2018-06-15T23:07:06.774Z,99.90
2018-06-15T23:09:36.497Z,99.90
2018-06-15T23:12:05.266Z,99.90
2018-06-15T23:14:35.039Z,99.90
2018-06-15T23:17:04.440Z,99.90
2018-06-15T23:19:34.340Z,99.90
2018-06-15T23:22:02.904Z,99.90
2018-06-15T23:24:32.460Z,99.90
2018-06-15T23:27:00.988Z,99.90
2018-06-15T23:29:29.550Z,99.90
2018-06-15T23:31:58.046Z,99.90
2018-06-15T23:34:26.985Z,99.90
